Airfield :
LOGIN :

Register | Disclaimer

   EN    FR    IT 

 










Legend :    VFR   Marginal VFR   IFR   Intensive IFR   Very Intensive IFR
Visi :
Ceiling :
>= 8 km
>= 3000ft
5 to 8 km
1000 to 3000 ft
1500m to 5 km
500 to 1000 ft
800 to 1500m
200 to 500 ft
< 800m
< 200 ft
Symbols :   Thunderstorms  Fog  Heavy snow  Heavy precipitations  Wind > 20 kt
SIGMETs :     Misc.  Thunderstorms  Icing  Turbulence  Mountain Waves  Volcanic Ashes







- Airport Elevation : 1260 ft
- IATA code : LDE
- Download approach charts


LFBT - Tarbes / Ossun

CURRENT METAR :
  • 281230Z AUTO 01010KT 9999 OVC006 20/18 Q1020 BECMG BKN020

EXPIRED METARs :
  • 281200Z AUTO 01008KT 9999 BKN008 OVC021 21/18 Q1020 BECMG BKN020
  • 281130Z AUTO 34005KT 300V010 9999 FEW008 BKN013 OVC021 21/19 Q1020 BECMG BKN020
  • 281100Z AUTO 36005KT 9999 BKN008 OVC015 20/18 Q1020 BECMG BKN020
  • 281030Z AUTO 02004KT 330V050 9999 BKN009 OVC014 20/18 Q1020 BECMG BKN020
  • 281000Z AUTO 36004KT 330V030 9999 OVC012 20/18 Q1020 BECMG BKN020

TAF TAF LFBT
Valid from the 28 at 06:00 until the 29 at 06:00 UTC


280500Z 2806/2906 33004KT 9999 BKN010
TEMPO 2806/2808 3000 -DZRA OVC005
BECMG 2808/2810 BKN012
BECMG 2809/2812 BKN020
PROB40
TEMPO 2903/2906 3000 MIFG
No reported NOTAMs for that airfield.



MET'MAP, your aeronautical weather chart ! - Copyright ORBIFLY December 2007 - Disclaimer

ORBIFLY MET'MAP TEAM :

Programming & Development : Alexandra Zaïnal
Concept & Development : Baudouin d'Aumeries
Co-Development & Prog : Marc-Olivier Méhu
Technical & hardware support : Manuel Goepfert

Contact : metmap@orbifly.com




SOURCES & CREDITS :

   NOAA